Time;durP1;ratioP1;P1;durP2;ratioP2;P2;SDS_P1;SDS_P2;PMS_P1;PMS_P2;Temp;Humidity;BMP_temperature;BMP_pressure;BME280_temperature;BME280_humidity;BME280_pressure;Samples;Min_cycle;Max_cycle;Signal;HPM_P1;HPM_P2
2022/11/05 00:09:31;;;;;;;;;;;;;;;14.12;62.35;99753.81;5054341;28;19924;-69
2022/11/05 00:17:29;;;;;;;;;;;;;;;14.01;62.68;99765.75;5054473;28;19967;-68
2022/11/05 00:19:54;;;;;;;;;;;;;;;14.04;62.65;99760.34;5054160;28;20300;-69
2022/11/05 00:25:16;;;;;;;;;;;;;;;14.06;62.48;99762.91;5054465;28;20302;-69
2022/11/05 00:27:42;;;;;;;;;;;;;;;14.08;62.67;99760.19;5054073;28;20431;-69
2022/11/05 00:30:08;;;;;;;;;;;;;;;14.08;62.55;99749.63;5054385;28;19948;-69
2022/11/05 00:32:33;;;;;;;;;;;;;;;14.10;62.60;99758.34;5054123;28;19963;-69
2022/11/05 00:34:59;;;;;;;;;;;;;;;14.04;62.86;99759.47;5053729;28;19916;-69
2022/11/05 00:37:26;;;;;;;;;;;;;;;14.12;62.48;99761.75;5054460;28;19920;-69
2022/11/05 00:39:51;;;;;;;;;;;;;;;14.16;62.40;99758.94;5053568;28;19944;-69
2022/11/05 00:45:00;;;;;;;;;;;;;;;14.12;62.46;99751.19;5053677;28;19986;-69
2022/11/05 00:50:10;;;;;;;;;;;;;;;14.16;62.56;99744.84;5053607;28;19931;-69
2022/11/05 00:52:54;;;;;;;;;;;;;;;14.13;62.69;99739.72;5053511;28;19921;-69
2022/11/05 00:55:19;;;;;;;;;;;;;;;14.11;62.70;99744.19;5053838;28;19917;-69
2022/11/05 00:57:45;;;;;;;;;;;;;;;14.12;62.76;99740.63;5053688;28;19963;-69
2022/11/05 01:00:10;;;;;;;;;;;;;;;14.10;62.66;99742.50;5053914;28;19925;-69
2022/11/05 01:02:36;;;;;;;;;;;;;;;14.08;62.80;99741.69;5053649;28;19924;-69
2022/11/05 01:05:01;;;;;;;;;;;;;;;13.97;63.20;99737.78;5053582;28;20360;-69
2022/11/05 01:07:26;;;;;;;;;;;;;;;13.95;63.00;99738.75;5054023;28;19946;-70
2022/11/05 01:09:52;;;;;;;;;;;;;;;13.91;63.45;99738.03;5053632;28;19920;-69
2022/11/05 01:12:17;;;;;;;;;;;;;;;13.88;63.48;99738.16;5052489;28;19931;-70
2022/11/05 01:14:42;;;;;;;;;;;;;;;13.94;63.31;99731.78;5053492;28;19916;-69
2022/11/05 01:17:07;;;;;;;;;;;;;;;13.94;63.35;99731.78;5053579;28;19921;-69
2022/11/05 01:19:33;;;;;;;;;;;;;;;13.91;63.58;99743.31;5053405;28;19921;-69
2022/11/05 01:21:58;;;;;;;;;;;;;;;13.95;63.41;99750.19;5053476;28;19943;-69
2022/11/05 01:24:23;;;;;;;;;;;;;;;13.93;63.43;99738.00;5068819;28;19944;-69
2022/11/05 01:26:49;;;;;;;;;;;;;;;13.98;63.29;99746.53;5087995;28;20357;-69
2022/11/05 01:29:14;;;;;;;;;;;;;;;14.02;63.20;99740.19;5057450;28;20395;-69
2022/11/05 01:31:40;;;;;;;;;;;;;;;14.02;63.16;99737.56;5057186;28;19928;-69
2022/11/05 01:34:05;;;;;;;;;;;;;;;14.09;63.03;99741.63;5057407;28;20015;-69
2022/11/05 01:36:30;;;;;;;;;;;;;;;14.00;63.24;99734.13;5091236;28;19921;-69
2022/11/05 01:38:55;;;;;;;;;;;;;;;14.04;63.24;99727.75;5059703;28;19917;-69
2022/11/05 01:41:21;;;;;;;;;;;;;;;14.06;63.09;99736.50;5091064;28;19920;-69
2022/11/05 01:43:51;;;;;;;;;;;;;;;14.00;63.27;99732.34;5089591;28;19928;-69
2022/11/05 01:46:35;;;;;;;;;;;;;;;14.02;63.13;99730.47;5057267;28;19923;-69
2022/11/05 01:49:12;;;;;;;;;;;;;;;14.05;63.14;99726.84;5058689;28;19925;-68
2022/11/05 01:51:38;;;;;;;;;;;;;;;14.01;63.10;99726.13;5056989;28;20000;-69
2022/11/05 01:54:05;;;;;;;;;;;;;;;13.96;63.43;99737.81;5056628;28;20060;-69
2022/11/05 01:56:45;;;;;;;;;;;;;;;13.95;63.38;99733.47;5056768;28;19924;-69
2022/11/05 01:59:17;;;;;;;;;;;;;;;13.99;63.21;99730.63;5056740;28;19921;-69
2022/11/05 02:01:43;;;;;;;;;;;;;;;14.02;63.15;99721.72;5057065;28;19924;-69
2022/11/05 02:04:10;;;;;;;;;;;;;;;14.02;63.19;99727.84;5056664;28;20065;-69
2022/11/05 02:06:37;;;;;;;;;;;;;;;14.04;63.00;99722.47;5056523;28;19943;-69
2022/11/05 02:09:07;;;;;;;;;;;;;;;14.03;63.05;99729.56;5055129;28;19917;-69
2022/11/05 02:11:32;;;;;;;;;;;;;;;14.11;62.88;99723.06;5055171;28;20288;-68
2022/11/05 02:13:58;;;;;;;;;;;;;;;14.11;62.90;99717.78;5056141;28;19921;-69
2022/11/05 02:16:32;;;;;;;;;;;;;;;14.07;63.02;99722.34;5056793;28;19917;-69
2022/11/05 02:19:00;;;;;;;;;;;;;;;14.12;62.93;99725.63;5056350;28;19917;-69
2022/11/05 02:21:44;;;;;;;;;;;;;;;14.12;62.99;99719.47;5056276;28;20376;-69
2022/11/05 02:24:15;;;;;;;;;;;;;;;14.16;62.88;99721.06;5056572;28;19962;-68
2022/11/05 02:26:40;;;;;;;;;;;;;;;14.19;62.88;99721.78;5056251;28;19916;-69
2022/11/05 02:29:41;;;;;;;;;;;;;;;14.15;62.84;99725.47;5071549;28;19924;-69
2022/11/05 02:32:11;;;;;;;;;;;;;;;14.19;62.91;99731.47;5014270;28;20017;-69
2022/11/05 02:34:49;;;;;;;;;;;;;;;14.17;62.86;99731.56;5048206;28;20418;-68
2022/11/05 02:37:33;;;;;;;;;;;;;;;14.15;62.94;99730.78;5056085;28;20028;-68
2022/11/05 02:40:21;;;;;;;;;;;;;;;14.19;62.83;99732.34;5055833;28;19924;-68
2022/11/05 02:43:18;;;;;;;;;;;;;;;14.19;62.88;99737.63;5055999;28;20074;-68
2022/11/05 02:45:43;;;;;;;;;;;;;;;14.16;62.95;99732.50;5032752;28;19925;-69
2022/11/05 02:48:12;;;;;;;;;;;;;;;14.14;62.91;99731.69;5055891;28;19925;-68
2022/11/05 02:50:48;;;;;;;;;;;;;;;14.12;63.00;99730.06;5055693;28;19974;-69
2022/11/05 02:53:18;;;;;;;;;;;;;;;14.11;63.19;99728.34;5055650;28;19939;-69
2022/11/05 02:55:59;;;;;;;;;;;;;;;14.09;63.14;99735.50;5056034;28;19916;-69
2022/11/05 02:58:28;;;;;;;;;;;;;;;14.13;63.12;99737.06;5055600;28;19952;-69
2022/11/05 03:00:57;;;;;;;;;;;;;;;14.02;63.47;99738.41;5054244;28;20371;-70
2022/11/05 03:03:33;;;;;;;;;;;;;;;14.02;63.34;99738.41;5055460;28;20368;-69
2022/11/05 03:06:17;;;;;;;;;;;;;;;14.02;63.29;99737.56;5055441;28;19921;-68
2022/11/05 03:09:00;;;;;;;;;;;;;;;14.09;63.20;99741.63;5055479;28;19916;-70
2022/11/05 03:11:27;;;;;;;;;;;;;;;14.07;63.24;99750.53;5055617;28;20059;-70
2022/11/05 03:13:58;;;;;;;;;;;;;;;14.07;63.31;99747.91;5055154;28;20021;-68
2022/11/05 03:16:46;;;;;;;;;;;;;;;14.02;63.35;99748.97;5054965;28;19917;-70
2022/11/05 03:19:30;;;;;;;;;;;;;;;13.93;63.83;99744.13;5055389;28;19920;-68
2022/11/05 03:22:04;;;;;;;;;;;;;;;14.09;63.11;99740.78;5055190;28;19924;-69
2022/11/05 03:24:31;;;;;;;;;;;;;;;14.01;63.21;99749.91;5055063;28;19917;-68
2022/11/05 03:27:13;;;;;;;;;;;;;;;13.99;63.26;99745.63;5054847;28;19956;-69
2022/11/05 03:29:43;;;;;;;;;;;;;;;13.97;63.41;99743.06;5054911;28;19963;-69
2022/11/05 03:32:10;;;;;;;;;;;;;;;14.05;63.45;99738.28;5070378;28;19917;-69
2022/11/05 03:34:37;;;;;;;;;;;;;;;14.09;63.06;99738.13;5054815;28;19967;-69
2022/11/05 03:37:04;;;;;;;;;;;;;;;14.12;62.97;99737.97;5054789;28;20396;-69
2022/11/05 03:39:31;;;;;;;;;;;;;;;14.13;62.97;99737.06;5055277;28;19924;-69
2022/11/05 03:41:58;;;;;;;;;;;;;;;14.07;63.10;99729.41;5054685;28;19923;-68
2022/11/05 03:44:28;;;;;;;;;;;;;;;14.03;63.11;99732.19;5055203;28;20360;-69
2022/11/05 03:46:57;;;;;;;;;;;;;;;14.06;63.19;99733.84;5055357;28;19921;-69
2022/11/05 03:49:27;;;;;;;;;;;;;;;14.06;63.08;99736.50;5057240;28;19932;-68
2022/11/05 03:51:57;;;;;;;;;;;;;;;14.01;63.12;99735.84;5055586;28;19921;-68
2022/11/05 03:54:23;;;;;;;;;;;;;;;13.98;63.09;99739.47;5054963;28;20376;-68
2022/11/05 03:56:58;;;;;;;;;;;;;;;14.04;63.01;99746.25;5055200;28;19955;-69
2022/11/05 03:59:24;;;;;;;;;;;;;;;14.05;63.05;99745.34;5055358;28;19920;-69
2022/11/05 04:01:49;;;;;;;;;;;;;;;14.04;63.08;99748.88;5054961;28;19917;-69
2022/11/05 04:04:14;;;;;;;;;;;;;;;14.04;62.91;99743.59;5054296;28;19916;-68
2022/11/05 04:14:52;;;;;;;;;;;;;;;13.98;63.12;99757.97;5054407;28;20344;-69
2022/11/05 04:17:18;;;;;;;;;;;;;;;14.00;63.24;99758.78;5054513;28;19995;-68
2022/11/05 04:25:13;;;;;;;;;;;;;;;13.98;63.12;99767.69;5054373;28;19924;-68
2022/11/05 04:27:39;;;;;;;;;;;;;;;14.04;63.00;99759.47;5054433;28;19917;-70
2022/11/05 04:30:20;;;;;;;;;;;;;;;14.05;62.84;99750.63;5054071;28;19927;-68
2022/11/05 04:33:04;;;;;;;;;;;;;;;14.09;62.79;99759.28;5054188;28;19916;-68
2022/11/05 04:35:39;;;;;;;;;;;;;;;14.05;62.73;99756.75;5053853;28;19959;-70
2022/11/05 04:38:06;;;;;;;;;;;;;;;13.96;63.03;99762.47;5053962;28;19920;-70
2022/11/05 04:40:32;;;;;;;;;;;;;;;13.95;63.00;99770.44;5053914;28;19921;-70
2022/11/05 04:42:57;;;;;;;;;;;;;;;13.97;63.05;99769.47;5054280;28;19921;-68
2022/11/05 04:45:23;;;;;;;;;;;;;;;14.00;63.03;99779.91;5053977;28;19999;-69
2022/11/05 04:47:49;;;;;;;;;;;;;;;14.03;62.93;99781.53;5053789;28;19920;-69
2022/11/05 04:50:14;;;;;;;;;;;;;;;14.08;62.94;99778.66;5086179;28;19925;-69
2022/11/05 04:52:40;;;;;;;;;;;;;;;14.11;62.71;99789.97;5053963;28;19924;-69
2022/11/05 04:55:06;;;;;;;;;;;;;;;14.11;62.80;99797.03;5053776;28;19921;-69
2022/11/05 04:57:31;;;;;;;;;;;;;;;14.11;62.81;99797.03;5053803;28;19924;-69
2022/11/05 04:59:56;;;;;;;;;;;;;;;13.99;63.19;99795.78;5069339;28;19916;-69
2022/11/05 05:02:21;;;;;;;;;;;;;;;14.00;63.50;99797.50;5057051;28;19928;-69
2022/11/05 05:04:47;;;;;;;;;;;;;;;14.04;63.08;99797.31;5058224;28;19927;-69
2022/11/05 05:07:12;;;;;;;;;;;;;;;14.00;63.58;99793.09;5058281;28;19928;-69
2022/11/05 05:09:37;;;;;;;;;;;;;;;13.88;63.45;99785.69;5058058;28;20326;-69
2022/11/05 05:12:03;;;;;;;;;;;;;;;13.82;63.75;99791.28;5057867;28;19921;-69
2022/11/05 05:14:28;;;;;;;;;;;;;;;13.91;63.38;99800.56;5090162;28;19921;-69
2022/11/05 05:16:53;;;;;;;;;;;;;;;13.87;63.49;99799.84;5057716;28;19927;-68
2022/11/05 05:19:19;;;;;;;;;;;;;;;13.79;63.78;99794.03;5057915;28;19923;-69
2022/11/05 05:21:44;;;;;;;;;;;;;;;13.81;63.77;99800.13;5057989;28;19927;-69
2022/11/05 05:24:14;;;;;;;;;;;;;;;13.91;63.63;99798.78;5057804;28;19925;-69
2022/11/05 05:26:41;;;;;;;;;;;;;;;13.98;63.76;99805.50;5057572;28;19917;-69
2022/11/05 05:29:06;;;;;;;;;;;;;;;14.03;63.28;99810.59;5057532;28;19917;-69
2022/11/05 05:31:32;;;;;;;;;;;;;;;14.05;63.43;99812.25;5057428;28;20015;-69
2022/11/05 05:33:57;;;;;;;;;;;;;;;14.10;63.15;99809.38;5057108;28;19920;-68
2022/11/05 05:36:23;;;;;;;;;;;;;;;14.06;63.18;99807.81;5057355;28;19996;-68
2022/11/05 05:38:48;;;;;;;;;;;;;;;14.09;63.43;99814.75;5057576;28;20391;-68
2022/11/05 05:41:13;;;;;;;;;;;;;;;14.10;63.23;99817.31;5072997;28;19921;-69
2022/11/05 05:43:39;;;;;;;;;;;;;;;14.12;63.48;99817.22;5089706;28;19928;-68
2022/11/05 05:46:06;;;;;;;;;;;;;;;14.11;63.24;99821.66;5057140;28;20368;-68
2022/11/05 05:48:31;;;;;;;;;;;;;;;14.12;63.05;99819.88;5056954;28;19943;-68
2022/11/05 05:51:03;;;;;;;;;;;;;;;14.17;63.13;99821.41;5057391;28;19924;-68
2022/11/05 05:53:29;;;;;;;;;;;;;;;14.16;62.73;99824.09;5055868;28;19972;-70
2022/11/05 05:55:55;;;;;;;;;;;;;;;14.17;62.86;99831.97;5056787;28;19994;-69
2022/11/05 05:58:21;;;;;;;;;;;;;;;14.20;62.80;99836.22;5058658;28;19921;-70
2022/11/05 06:00:46;;;;;;;;;;;;;;;14.19;62.73;99842.44;5058174;28;19917;-68
2022/11/05 06:03:11;;;;;;;;;;;;;;;14.18;62.77;99840.75;5055990;28;19917;-68
2022/11/05 06:05:37;;;;;;;;;;;;;;;14.21;62.84;99844.09;5057042;28;20386;-69
2022/11/05 06:08:02;;;;;;;;;;;;;;;14.17;62.82;99849.59;5057279;28;19925;-69
2022/11/05 06:10:27;;;;;;;;;;;;;;;14.12;62.90;99855.06;5072872;28;20019;-69
2022/11/05 06:12:53;;;;;;;;;;;;;;;14.12;63.08;99852.44;5056136;28;19921;-69
2022/11/05 06:15:19;;;;;;;;;;;;;;;14.16;62.83;99853.16;5056584;28;19956;-69
2022/11/05 06:17:44;;;;;;;;;;;;;;;14.15;62.75;99862.00;5056824;28;20054;-69
2022/11/05 06:20:10;;;;;;;;;;;;;;;14.07;62.98;99865.00;5056916;28;19921;-69
2022/11/05 06:22:35;;;;;;;;;;;;;;;14.03;63.11;99860.75;5056616;28;20351;-69
2022/11/05 06:25:01;;;;;;;;;;;;;;;14.06;63.17;99860.63;5056764;28;19964;-69
2022/11/05 06:27:27;;;;;;;;;;;;;;;14.16;63.07;99869.00;5072081;28;19921;-69
2022/11/05 06:29:52;;;;;;;;;;;;;;;14.15;63.01;99864.66;5056397;28;19927;-68
2022/11/05 06:32:18;;;;;;;;;;;;;;;14.20;62.86;99860.00;5056806;28;19917;-69
2022/11/05 06:34:43;;;;;;;;;;;;;;;14.12;62.99;99857.72;5088792;28;19921;-69
2022/11/05 06:37:08;;;;;;;;;;;;;;;13.96;63.40;99869.88;5088718;28;19920;-69
2022/11/05 06:39:34;;;;;;;;;;;;;;;13.96;63.27;99876.03;5056252;28;19923;-69
2022/11/05 06:41:59;;;;;;;;;;;;;;;13.99;63.40;99885.59;5056093;28;20377;-69
2022/11/05 06:44:24;;;;;;;;;;;;;;;14.03;63.34;99880.09;5088480;28;19921;-68
2022/11/05 06:46:49;;;;;;;;;;;;;;;14.03;63.21;99880.09;5056044;28;20355;-68
2022/11/05 06:49:15;;;;;;;;;;;;;;;14.01;63.30;99887.25;5056534;28;20011;-69
2022/11/05 06:51:40;;;;;;;;;;;;;;;14.25;62.77;99892.41;5056050;28;19928;-68
2022/11/05 06:54:05;;;;;;;;;;;;;;;14.33;62.55;99895.56;5055933;28;19944;-69
2022/11/05 06:56:31;;;;;;;;;;;;;;;14.36;62.50;99898.03;5055786;28;20311;-69
2022/11/05 06:58:56;;;;;;;;;;;;;;;14.42;62.26;99887.19;5055876;28;19924;-69
2022/11/05 07:01:22;;;;;;;;;;;;;;;14.43;62.22;99888.06;5056079;28;19963;-69
2022/11/05 07:03:48;;;;;;;;;;;;;;;14.48;62.21;99896.63;5055730;28;20023;-70
2022/11/05 07:06:13;;;;;;;;;;;;;;;14.52;62.00;99899.13;5055989;28;19966;-69
2022/11/05 07:08:39;;;;;;;;;;;;;;;14.47;62.28;99900.19;5055689;28;19920;-68
2022/11/05 07:11:04;;;;;;;;;;;;;;;14.50;62.22;99908.88;5055662;28;20380;-70
2022/11/05 07:13:30;;;;;;;;;;;;;;;14.56;61.95;99917.47;5087857;28;20288;-69
2022/11/05 07:15:55;;;;;;;;;;;;;;;14.60;61.93;99922.56;5055443;28;19992;-69
2022/11/05 07:18:21;;;;;;;;;;;;;;;14.58;61.80;99924.41;5055494;28;19955;-69
2022/11/05 07:20:47;;;;;;;;;;;;;;;14.56;61.91;99922.75;5055376;28;19917;-70
2022/11/05 07:23:13;;;;;;;;;;;;;;;14.54;62.15;99928.97;5054797;28;19920;-70
2022/11/05 07:25:39;;;;;;;;;;;;;;;14.47;62.40;99927.50;5055001;28;19923;-70
2022/11/05 07:28:04;;;;;;;;;;;;;;;14.51;62.25;99938.81;5055311;28;19921;-70
2022/11/05 07:30:30;;;;;;;;;;;;;;;14.45;62.22;99950.50;5055154;28;20070;-70
2022/11/05 07:32:56;;;;;;;;;;;;;;;14.39;62.38;99940.19;5055212;28;19916;-70
2022/11/05 07:35:22;;;;;;;;;;;;;;;14.32;62.47;99937.88;5055090;28;20305;-70
2022/11/05 07:37:48;;;;;;;;;;;;;;;14.37;62.56;99934.13;5055369;28;19921;-70
2022/11/05 07:40:14;;;;;;;;;;;;;;;14.44;62.35;99938.22;5054957;28;19975;-70
2022/11/05 07:42:43;;;;;;;;;;;;;;;14.52;62.39;99935.25;5055093;28;19921;-69
2022/11/05 07:45:09;;;;;;;;;;;;;;;14.57;62.05;99922.69;5054991;28;20388;-69
2022/11/05 07:47:37;;;;;;;;;;;;;;;14.63;62.07;99921.56;5054520;28;19975;-70
2022/11/05 07:50:03;;;;;;;;;;;;;;;14.66;61.92;99934.63;5054689;28;19996;-70
2022/11/05 07:52:30;;;;;;;;;;;;;;;14.70;61.95;99945.00;5054942;28;19927;-69
2022/11/05 07:54:55;;;;;;;;;;;;;;;14.72;61.83;99944.91;5054632;28;19952;-69
2022/11/05 07:57:20;;;;;;;;;;;;;;;14.71;61.98;99948.50;5054824;28;20372;-69
2022/11/05 07:59:46;;;;;;;;;;;;;;;14.67;62.54;99950.41;5054452;28;19921;-70
2022/11/05 08:02:12;;;;;;;;;;;;;;;14.53;62.77;99953.69;5054896;28;19924;-69
2022/11/05 08:04:39;;;;;;;;;;;;;;;14.69;62.19;99963.59;5054605;28;20387;-69
2022/11/05 08:07:04;;;;;;;;;;;;;;;14.64;62.13;99978.78;5054714;28;20380;-71
2022/11/05 08:09:29;;;;;;;;;;;;;;;14.56;62.70;99975.63;5055636;28;20011;-70
2022/11/05 08:11:56;;;;;;;;;;;;;;;14.56;62.78;99968.53;5054706;28;19917;-69
2022/11/05 08:14:21;;;;;;;;;;;;;;;14.56;63.10;99973.84;5054134;28;19921;-70
2022/11/05 08:16:47;;;;;;;;;;;;;;;14.55;62.73;99972.13;5055009;28;20058;-69
2022/11/05 08:19:12;;;;;;;;;;;;;;;14.53;63.02;99974.00;5054733;28;19920;-70
2022/11/05 08:21:37;;;;;;;;;;;;;;;14.62;63.01;99981.50;5087024;28;20364;-70
2022/11/05 08:24:03;;;;;;;;;;;;;;;14.67;62.84;99983.94;5054967;28;19928;-70
2022/11/05 08:26:28;;;;;;;;;;;;;;;14.57;62.81;99982.66;5054532;28;19921;-68
2022/11/05 08:28:53;;;;;;;;;;;;;;;14.54;63.24;99986.28;5054471;28;20288;-70
2022/11/05 08:31:18;;;;;;;;;;;;;;;14.57;63.17;99988.78;5054223;28;19921;-69
2022/11/05 08:33:44;;;;;;;;;;;;;;;14.53;63.20;99990.72;5054056;28;19921;-69
2022/11/05 08:36:09;;;;;;;;;;;;;;;14.40;63.58;99993.91;5053758;28;19967;-70
2022/11/05 08:38:34;;;;;;;;;;;;;;;14.20;64.33;99997.41;5054179;28;19928;-69
2022/11/05 08:41:00;;;;;;;;;;;;;;;14.26;64.25;99986.59;5054109;28;19920;-70
2022/11/05 08:43:25;;;;;;;;;;;;;;;14.51;63.95;99989.91;5086236;28;19980;-69
2022/11/05 08:45:50;;;;;;;;;;;;;;;14.63;63.46;99991.16;5053991;28;19917;-69
2022/11/05 08:48:16;;;;;;;;;;;;;;;14.77;63.35;99993.19;5054042;28;19928;-70
2022/11/05 08:50:42;;;;;;;;;;;;;;;14.82;62.97;100003.56;5053692;28;19929;-69
2022/11/05 08:53:08;;;;;;;;;;;;;;;14.86;62.77;100000.69;5053998;28;19955;-69
2022/11/05 08:55:33;;;;;;;;;;;;;;;14.94;62.69;100003.84;5053869;28;20013;-70
2022/11/05 08:58:03;;;;;;;;;;;;;;;15.06;62.32;100014.81;5086164;28;19917;-70
2022/11/05 09:00:29;;;;;;;;;;;;;;;15.09;62.10;100010.25;5086108;28;19917;-70
2022/11/05 09:02:57;;;;;;;;;;;;;;;15.04;62.47;100017.53;5052560;28;19943;-69
2022/11/05 09:05:22;;;;;;;;;;;;;;;15.03;62.45;100021.94;5054106;28;19920;-69
2022/11/05 09:07:47;;;;;;;;;;;;;;;14.93;62.63;100027.75;5053880;28;20272;-70
2022/11/05 09:10:13;;;;;;;;;;;;;;;14.84;62.84;100031.66;5053663;28;19921;-70
2022/11/05 09:12:38;;;;;;;;;;;;;;;14.60;63.45;100033.59;5054271;28;19978;-70
2022/11/05 09:15:03;;;;;;;;;;;;;;;14.53;63.92;100038.28;5053741;28;19928;-70
2022/11/05 09:17:29;;;;;;;;;;;;;;;14.59;64.43;100046.88;5053847;28;20351;-70
2022/11/05 09:19:54;;;;;;;;;;;;;;;14.77;63.70;100051.38;5053706;28;20288;-70
2022/11/05 09:22:19;;;;;;;;;;;;;;;14.93;64.26;100060.34;5053486;28;19944;-70
2022/11/05 09:24:45;;;;;;;;;;;;;;;14.92;62.96;100069.22;5053588;28;20273;-71
2022/11/05 09:27:15;;;;;;;;;;;;;;;15.01;63.03;100060.00;5053470;28;19932;-70
2022/11/05 09:29:40;;;;;;;;;;;;;;;14.81;62.75;100058.25;5053876;28;19917;-70
2022/11/05 09:32:05;;;;;;;;;;;;;;;14.81;63.28;100068.81;5053783;28;20008;-70
2022/11/05 09:34:31;;;;;;;;;;;;;;;14.21;64.32;100070.50;5053523;28;20280;-70
2022/11/05 09:36:56;;;;;;;;;;;;;;;13.99;65.56;100071.34;5053445;28;19964;-70
2022/11/05 09:39:22;;;;;;;;;;;;;;;14.07;65.55;100064.91;5053532;28;19979;-71
2022/11/05 09:41:48;;;;;;;;;;;;;;;14.44;64.59;100069.50;5053207;28;19970;-71
2022/11/05 09:44:22;;;;;;;;;;;;;;;14.28;64.34;100067.53;5053726;28;20011;-70
2022/11/05 09:46:48;;;;;;;;;;;;;;;14.46;64.16;100079.09;5054005;28;19917;-71
2022/11/05 09:49:28;;;;;;;;;;;;;;;14.60;63.76;100085.59;5057161;28;20269;-70
2022/11/05 09:51:55;;;;;;;;;;;;;;;14.36;64.22;100088.31;5057162;28;19925;-69
2022/11/05 09:54:22;;;;;;;;;;;;;;;14.51;64.40;100093.00;5057208;28;19917;-70
2022/11/05 09:56:48;;;;;;;;;;;;;;;14.70;63.61;100098.38;5056952;28;20460;-70
2022/11/05 09:59:17;;;;;;;;;;;;;;;14.51;63.53;100102.72;5072711;28;19975;-70
2022/11/05 10:01:43;;;;;;;;;;;;;;;14.66;63.55;100111.78;5056991;28;19917;-69
2022/11/05 10:04:12;;;;;;;;;;;;;;;14.61;63.36;100113.78;5056942;28;20364;-71
2022/11/05 10:06:45;;;;;;;;;;;;;;;14.63;63.45;100119.84;5056884;28;19916;-69
2022/11/05 10:09:31;;;;;;;;;;;;;;;14.74;63.08;100115.81;5056815;28;20335;-69
2022/11/05 10:12:01;;;;;;;;;;;;;;;14.63;63.29;100122.50;5057036;28;19917;-70
2022/11/05 10:14:29;;;;;;;;;;;;;;;14.69;63.41;100122.25;5056546;28;20384;-71
2022/11/05 10:16:58;;;;;;;;;;;;;;;14.62;63.47;100121.63;5056647;28;19962;-68
2022/11/05 10:19:26;;;;;;;;;;;;;;;14.81;62.89;100127.00;5056747;28;19924;-70
2022/11/05 10:22:08;;;;;;;;;;;;;;;14.89;62.90;100140.75;5056671;28;20244;-69
2022/11/05 10:24:33;;;;;;;;;;;;;;;14.82;62.52;100139.31;5088807;28;20381;-69
2022/11/05 10:26:58;;;;;;;;;;;;;;;14.88;62.59;100139.06;5056894;28;19928;-69
2022/11/05 10:29:26;;;;;;;;;;;;;;;14.81;62.81;100137.59;5056840;28;20291;-67
2022/11/05 10:31:52;;;;;;;;;;;;;;;14.82;63.36;100143.75;5056465;28;19917;-69
2022/11/05 10:34:19;;;;;;;;;;;;;;;14.63;63.12;100147.16;5056179;28;19917;-69
2022/11/05 10:36:45;;;;;;;;;;;;;;;14.45;64.17;100156.69;5056594;28;20398;-69
2022/11/05 10:39:12;;;;;;;;;;;;;;;14.55;63.86;100162.47;5054887;28;20012;-69
2022/11/05 10:41:43;;;;;;;;;;;;;;;14.62;63.48;100174.53;5056055;28;19971;-69
2022/11/05 10:44:08;;;;;;;;;;;;;;;14.80;63.07;100162.28;5056263;28;20015;-69
2022/11/05 10:46:39;;;;;;;;;;;;;;;14.80;62.76;100178.16;5056054;28;20336;-69
2022/11/05 10:49:40;;;;;;;;;;;;;;;14.65;62.81;100168.25;5056126;28;20403;-68
2022/11/05 10:52:18;;;;;;;;;;;;;;;14.71;62.92;100175.91;5014164;28;19921;-70
2022/11/05 10:54:44;;;;;;;;;;;;;;;14.34;63.32;100187.97;5050768;28;20361;-70
2022/11/05 10:57:45;;;;;;;;;;;;;;;14.34;62.71;100192.41;5056124;28;19921;-69
2022/11/05 11:00:22;;;;;;;;;;;;;;;14.67;62.39;100203.41;5014006;28;20000;-70
2022/11/05 11:02:47;;;;;;;;;;;;;;;14.47;62.87;100196.25;5049834;28;20280;-69
2022/11/05 11:05:24;;;;;;;;;;;;;;;14.41;63.30;100200.03;5055485;28;19920;-69
2022/11/05 11:07:55;;;;;;;;;;;;;;;14.34;62.87;100197.69;5055932;28;19924;-70
2022/11/05 11:10:21;;;;;;;;;;;;;;;14.31;62.86;100196.00;5055722;28;20008;-69
2022/11/05 11:12:48;;;;;;;;;;;;;;;14.38;62.98;100199.28;5055477;28;20292;-69
2022/11/05 11:15:20;;;;;;;;;;;;;;;14.16;63.77;100199.25;5055290;28;19924;-68
2022/11/05 11:17:45;;;;;;;;;;;;;;;14.34;63.26;100206.47;5055802;28;20019;-69
2022/11/05 11:20:20;;;;;;;;;;;;;;;14.40;63.28;100210.63;5055429;28;19964;-69
2022/11/05 11:22:58;;;;;;;;;;;;;;;14.30;63.04;100216.31;5055381;28;19924;-68
2022/11/05 11:25:25;;;;;;;;;;;;;;;14.49;62.94;100213.81;5055109;28;19921;-69
2022/11/05 11:27:51;;;;;;;;;;;;;;;14.57;62.75;100221.44;5053895;28;20315;-69
2022/11/05 11:30:17;;;;;;;;;;;;;;;14.62;62.50;100222.13;5053910;28;19916;-69
2022/11/05 11:32:42;;;;;;;;;;;;;;;14.48;62.59;100230.59;5055111;28;19966;-69
2022/11/05 11:35:17;;;;;;;;;;;;;;;14.71;62.48;100220.88;5055332;28;19917;-70
2022/11/05 11:37:43;;;;;;;;;;;;;;;14.76;62.49;100225.06;5055275;28;19994;-69
2022/11/05 11:40:28;;;;;;;;;;;;;;;14.44;63.08;100223.69;5054986;28;20365;-69
2022/11/05 11:42:56;;;;;;;;;;;;;;;14.54;63.12;100230.34;5055572;28;19916;-68
2022/11/05 11:45:21;;;;;;;;;;;;;;;14.53;63.13;100236.56;5054755;28;19948;-69
2022/11/05 11:47:48;;;;;;;;;;;;;;;14.75;63.01;100228.63;5054839;28;19958;-70
2022/11/05 11:50:31;;;;;;;;;;;;;;;14.79;62.25;100234.63;5054460;28;20479;-68
2022/11/05 11:53:16;;;;;;;;;;;;;;;14.72;62.53;100241.97;5070122;28;20315;-69
2022/11/05 11:55:56;;;;;;;;;;;;;;;14.72;62.52;100249.91;5054728;28;20288;-69
2022/11/05 11:58:34;;;;;;;;;;;;;;;14.69;62.44;100244.75;5054165;28;20139;-69
2022/11/05 12:01:19;;;;;;;;;;;;;;;14.82;62.34;100247.75;5054598;28;19917;-69
2022/11/05 12:03:50;;;;;;;;;;;;;;;14.86;63.14;100254.63;5054955;28;19917;-69
2022/11/05 12:06:47;;;;;;;;;;;;;;;15.20;61.92;100258.50;5054779;28;19917;-70
2022/11/05 12:09:15;;;;;;;;;;;;;;;15.17;61.40;100266.59;5031190;28;19927;-69
2022/11/05 12:11:46;;;;;;;;;;;;;;;14.86;62.07;100267.00;5054125;28;19923;-69
2022/11/05 12:14:31;;;;;;;;;;;;;;;14.85;62.44;100271.44;5054814;28;19917;-69
2022/11/05 12:17:06;;;;;;;;;;;;;;;14.91;62.86;100265.88;5054674;28;19920;-70
2022/11/05 12:19:48;;;;;;;;;;;;;;;14.95;62.48;100277.19;5069938;28;19916;-70
2022/11/05 12:22:16;;;;;;;;;;;;;;;15.03;62.30;100277.72;5054605;28;19932;-70
2022/11/05 12:24:53;;;;;;;;;;;;;;;14.85;62.78;100282.00;5054319;28;19917;-70
2022/11/05 12:27:24;;;;;;;;;;;;;;;14.93;62.56;100287.84;5054301;28;20353;-70
2022/11/05 12:29:53;;;;;;;;;;;;;;;14.91;62.50;100283.53;5054892;28;19978;-70
2022/11/05 12:32:28;;;;;;;;;;;;;;;15.00;62.56;100285.78;5055335;28;19916;-69
2022/11/05 12:35:20;;;;;;;;;;;;;;;15.01;62.48;100277.81;5053942;28;19927;-69
2022/11/05 12:37:55;;;;;;;;;;;;;;;14.90;62.58;100282.69;5051886;28;19948;-70
2022/11/05 12:40:32;;;;;;;;;;;;;;;14.84;62.99;100285.59;5055221;28;19924;-70
2022/11/05 12:43:01;;;;;;;;;;;;;;;14.82;63.07;100289.22;5054795;28;20276;-69
2022/11/05 12:45:26;;;;;;;;;;;;;;;14.78;63.65;100286.69;5054514;28;19956;-70
2022/11/05 12:48:00;;;;;;;;;;;;;;;14.45;63.84;100296.78;5054029;28;19956;-70
2022/11/05 12:50:42;;;;;;;;;;;;;;;14.59;63.64;100293.63;5053778;28;19968;-70
2022/11/05 12:53:26;;;;;;;;;;;;;;;14.39;64.02;100296.16;5054024;28;19917;-69
2022/11/05 12:55:53;;;;;;;;;;;;;;;14.45;63.86;100298.56;5053821;28;19939;-70
2022/11/05 12:58:25;;;;;;;;;;;;;;;14.37;64.19;100300.66;5053766;28;20074;-69
2022/11/05 13:01:17;;;;;;;;;;;;;;;14.17;64.06;100293.47;5053992;28;19942;-69
2022/11/05 13:03:46;;;;;;;;;;;;;;;14.30;63.33;100295.59;5050343;28;19939;-69
2022/11/05 13:06:11;;;;;;;;;;;;;;;14.52;62.99;100305.34;5053827;28;19970;-69
2022/11/05 13:08:40;;;;;;;;;;;;;;;14.46;62.70;100311.72;5053397;28;19920;-70
2022/11/05 13:11:31;;;;;;;;;;;;;;;14.50;62.38;100321.28;5053534;28;20391;-68
2022/11/05 13:14:12;;;;;;;;;;;;;;;14.54;62.43;100317.59;5051478;28;20281;-70
2022/11/05 13:16:44;;;;;;;;;;;;;;;14.65;62.52;100311.03;5053532;28;19917;-70
2022/11/05 13:19:12;;;;;;;;;;;;;;;14.73;62.00;100314.25;5053395;28;19917;-71
2022/11/05 13:21:39;;;;;;;;;;;;;;;14.75;62.11;100320.31;5053288;28;19917;-70
2022/11/05 13:24:16;;;;;;;;;;;;;;;14.79;62.13;100316.63;5057475;28;20265;-70
2022/11/05 13:26:45;;;;;;;;;;;;;;;14.81;62.00;100322.72;5057594;28;19971;-70
2022/11/05 13:29:26;;;;;;;;;;;;;;;14.78;62.24;100330.78;5057156;28;20268;-70